Time;durP1;ratioP1;P1;durP2;ratioP2;P2;SDS_P1;SDS_P2;PMS_P1;PMS_P2;Temp;Humidity;BMP_temperature;BMP_pressure;BME280_temperature;BME280_humidity;BME280_pressure;Samples;Min_cycle;Max_cycle;Signal;HPM_P1;HPM_P2
2021/08/11 00:01:57;;;;;;;41.65;7.32;;;;;;;;;;6207988;28;20050;-81
2021/08/11 00:04:59;;;;;;;39.30;7.20;;;;;;;;;;6231686;28;20057;-80
2021/08/11 00:08:01;;;;;;;25.05;6.32;;;;;;;;;;6234942;28;20057;-81
2021/08/11 00:11:03;;;;;;;18.35;6.03;;;;;;;;;;6234080;28;20124;-81
2021/08/11 00:14:04;;;;;;;27.92;5.80;;;;;;;;;;6224845;28;20101;-81
2021/08/11 00:17:06;;;;;;;16.38;5.85;;;;;;;;;;6232602;28;20041;-81
2021/08/11 00:20:09;;;;;;;29.05;5.82;;;;;;;;;;6231610;28;20092;-80
2021/08/11 00:23:10;;;;;;;15.07;5.47;;;;;;;;;;6234539;28;20072;-81
2021/08/11 00:26:12;;;;;;;31.58;5.05;;;;;;;;;;6232304;28;20113;-81
2021/08/11 00:29:13;;;;;;;31.02;5.50;;;;;;;;;;6234419;28;20072;-81
2021/08/11 00:32:16;;;;;;;26.42;5.55;;;;;;;;;;6220806;28;20061;-81
2021/08/11 00:35:18;;;;;;;38.88;6.40;;;;;;;;;;6216617;28;20056;-81
2021/08/11 00:38:22;;;;;;;17.35;5.10;;;;;;;;;;6257818;28;20124;-81
2021/08/11 00:41:27;;;;;;;11.98;4.43;;;;;;;;;;6256320;28;20061;-81
2021/08/11 00:44:29;;;;;;;9.63;4.80;;;;;;;;;;6239961;28;20053;-81
2021/08/11 00:47:35;;;;;;;12.63;5.20;;;;;;;;;;6223939;28;20041;-81
2021/08/11 00:50:39;;;;;;;14.10;5.10;;;;;;;;;;6255907;28;20041;-81
2021/08/11 00:53:41;;;;;;;;;;;;;;;;;;6240997;28;20117;-81
2021/08/11 00:56:47;;;;;;;31.63;5.50;;;;;;;;;;6238774;28;19921;-80
2021/08/11 00:59:50;;;;;;;22.15;5.60;;;;;;;;;;6238816;28;20060;-81
2021/08/11 01:02:53;;;;;;;42.92;5.82;;;;;;;;;;6240406;28;20922;-81
2021/08/11 01:06:00;;;;;;;8.60;4.68;;;;;;;;;;6239776;28;20495;-81
2021/08/11 01:09:04;;;;;;;22.80;4.75;;;;;;;;;;6239587;28;20045;-81
2021/08/11 01:12:09;;;;;;;25.23;4.38;;;;;;;;;;6240440;28;20103;-81
2021/08/11 01:15:11;;;;;;;19.05;4.63;;;;;;;;;;6241417;28;20052;-81
2021/08/11 01:18:15;;;;;;;20.92;4.18;;;;;;;;;;6241348;28;20045;-81
2021/08/11 01:21:31;;;;;;;17.92;4.95;;;;;;;;;;6238890;28;20041;-81
2021/08/11 01:24:36;;;;;;;14.55;4.72;;;;;;;;;;6239229;28;20045;-80
2021/08/11 01:28:18;;;;;;;31.45;4.95;;;;;;;;;;6256588;28;20041;-80
2021/08/11 01:31:30;;;;;;;49.45;5.63;;;;;;;;;;6213680;28;20045;-80
2021/08/11 01:34:42;;;;;;;47.88;6.20;;;;;;;;;;6215141;28;20045;-80
2021/08/11 01:37:50;;;;;;;37.80;6.17;;;;;;;;;;6228827;28;20034;-80
2021/08/11 01:41:01;;;;;;;22.85;4.78;;;;;;;;;;6245599;28;20046;-80
2021/08/11 01:44:06;;;;;;;35.35;5.45;;;;;;;;;;6241143;28;20050;-80
2021/08/11 01:47:13;;;;;;;51.17;5.38;;;;;;;;;;6225413;28;20048;-81
2021/08/11 01:50:18;;;;;;;58.28;6.88;;;;;;;;;;6238008;28;20056;-80
2021/08/11 01:53:23;;;;;;;55.20;5.93;;;;;;;;;;6222934;28;20053;-80
2021/08/11 01:56:25;;;;;;;83.00;9.52;;;;;;;;;;6238562;28;20089;-81
2021/08/11 01:59:27;;;;;;;43.83;5.57;;;;;;;;;;6254778;28;20056;-81
2021/08/11 02:02:30;;;;;;;10.45;5.00;;;;;;;;;;6238376;28;20045;-81
2021/08/11 02:05:33;;;;;;;38.70;6.25;;;;;;;;;;6256072;28;20068;-81
2021/08/11 02:08:42;;;;;;;7.90;4.30;;;;;;;;;;6243471;28;20056;-80
2021/08/11 02:11:46;;;;;;;9.85;4.78;;;;;;;;;;6243277;28;20405;-81
2021/08/11 02:14:48;;;;;;;;;;;;;;;;;;6243630;28;20156;-81
2021/08/11 02:17:51;;;;;;;18.27;4.40;;;;;;;;;;6243260;28;19927;-81
2021/08/11 02:20:54;;;;;;;30.92;4.45;;;;;;;;;;6250055;28;20042;-81
2021/08/11 02:23:58;;;;;;;32.63;4.10;;;;;;;;;;6234555;28;20066;-81
2021/08/11 02:27:06;;;;;;;19.67;4.47;;;;;;;;;;6227697;28;20041;-81
2021/08/11 02:30:16;;;;;;;40.92;5.80;;;;;;;;;;6247885;28;20080;-81
2021/08/11 02:33:31;;;;;;;35.00;5.20;;;;;;;;;;6232788;28;20519;-80
2021/08/11 02:36:48;;;;;;;44.05;6.13;;;;;;;;;;6235515;28;20050;-81
2021/08/11 02:40:07;;;;;;;40.17;5.32;;;;;;;;;;6235044;28;20046;-81
2021/08/11 02:43:18;;;;;;;27.63;4.55;;;;;;;;;;6250259;28;20118;-81
2021/08/11 02:46:23;;;;;;;30.08;4.72;;;;;;;;;;6234271;28;20073;-80
2021/08/11 02:49:28;;;;;;;45.35;6.38;;;;;;;;;;6218274;28;20064;-80
2021/08/11 02:52:37;;;;;;;18.77;4.82;;;;;;;;;;6225846;28;20062;-80
2021/08/11 02:55:40;;;;;;;14.70;4.97;;;;;;;;;;6200174;28;20104;-81
2021/08/11 02:58:43;;;;;;;25.55;4.95;;;;;;;;;;6233665;28;20062;-80
2021/08/11 03:01:46;;;;;;;25.63;4.13;;;;;;;;;;6234773;28;20087;-81
2021/08/11 03:04:48;;;;;;;;;;;;;;;;;;6218069;28;20041;-80
2021/08/11 03:07:51;;;;;;;36.50;5.22;;;;;;;;;;6257988;28;19921;-80
2021/08/11 03:10:55;;;;;;;31.58;4.38;;;;;;;;;;6241923;28;20052;-80
2021/08/11 03:13:58;;;;;;;51.88;7.07;;;;;;;;;;6241153;28;20061;-80
2021/08/11 03:17:00;;;;;;;46.92;5.72;;;;;;;;;;6256441;28;20044;-80
2021/08/11 03:20:02;;;;;;;29.60;4.95;;;;;;;;;;6258515;28;20072;-81
2021/08/11 03:23:03;;;;;;;25.90;4.38;;;;;;;;;;6241813;28;20049;-80
2021/08/11 03:26:06;;;;;;;22.20;4.80;;;;;;;;;;6241210;28;20026;-80
2021/08/11 03:29:09;;;;;;;19.98;4.60;;;;;;;;;;6238951;28;20036;-79
2021/08/11 03:32:15;;;;;;;29.00;4.93;;;;;;;;;;6246439;28;20506;-80
2021/08/11 03:35:18;;;;;;;25.63;4.18;;;;;;;;;;6238034;28;20351;-80
2021/08/11 03:38:20;;;;;;;10.98;4.47;;;;;;;;;;6239546;28;20060;-80
2021/08/11 03:41:23;;;;;;;13.55;4.30;;;;;;;;;;6239037;28;20093;-80
2021/08/11 03:44:25;;;;;;;25.27;4.78;;;;;;;;;;6256471;28;20041;-80
2021/08/11 03:47:28;;;;;;;19.10;3.83;;;;;;;;;;6237561;28;20052;-80
2021/08/11 03:50:30;;;;;;;8.98;3.75;;;;;;;;;;6240302;28;20056;-80
2021/08/11 03:53:32;;;;;;;13.88;4.20;;;;;;;;;;6256999;28;20058;-80
2021/08/11 03:56:35;;;;;;;9.38;3.95;;;;;;;;;;6241127;28;20037;-80
2021/08/11 03:59:37;;;;;;;12.93;4.20;;;;;;;;;;6240903;28;20052;-80
2021/08/11 04:02:39;;;;;;;51.38;5.05;;;;;;;;;;6258062;28;20045;-80
2021/08/11 04:05:41;;;;;;;38.37;4.73;;;;;;;;;;6256949;28;20037;-79
2021/08/11 04:08:42;;;;;;;7.18;3.25;;;;;;;;;;6257413;28;20041;-80
2021/08/11 04:11:45;;;;;;;32.92;3.97;;;;;;;;;;6256412;28;20052;-80
2021/08/11 04:14:47;;;;;;;34.67;4.05;;;;;;;;;;6256506;28;20037;-80
2021/08/11 04:17:48;;;;;;;33.30;4.70;;;;;;;;;;6256340;28;20053;-79
2021/08/11 04:20:50;;;;;;;20.95;4.60;;;;;;;;;;6256717;28;20052;-79
2021/08/11 04:23:51;;;;;;;20.25;4.75;;;;;;;;;;6243533;28;20056;-79
2021/08/11 04:26:53;;;;;;;21.10;4.03;;;;;;;;;;6225287;28;20058;-79
2021/08/11 04:29:55;;;;;;;19.55;3.53;;;;;;;;;;6226272;28;20053;-79
2021/08/11 04:32:56;;;;;;;31.38;5.20;;;;;;;;;;6225046;28;20065;-80
2021/08/11 04:35:58;;;;;;;16.10;2.90;;;;;;;;;;6230321;28;20048;-80
2021/08/11 04:38:59;;;;;;;37.20;4.00;;;;;;;;;;6234934;28;20510;-80
2021/08/11 04:42:01;;;;;;;24.25;3.58;;;;;;;;;;6232689;28;20057;-79
2021/08/11 04:45:02;;;;;;;9.15;3.20;;;;;;;;;;6231636;28;20057;-80
2021/08/11 04:48:05;;;;;;;7.47;2.67;;;;;;;;;;6229794;28;20049;-80
2021/08/11 04:51:06;;;;;;;18.60;3.17;;;;;;;;;;6230749;28;20109;-79
2021/08/11 04:54:08;;;;;;;16.02;3.20;;;;;;;;;;6230837;28;20046;-80
2021/08/11 04:57:09;;;;;;;9.77;2.72;;;;;;;;;;6228349;28;20041;-80
2021/08/11 05:00:11;;;;;;;12.80;2.78;;;;;;;;;;6229430;28;20045;-79
2021/08/11 05:03:13;;;;;;;7.35;2.67;;;;;;;;;;6243310;28;20273;-80
2021/08/11 05:06:17;;;;;;;8.48;2.88;;;;;;;;;;6226805;28;20133;-79
2021/08/11 05:09:27;;;;;;;13.52;3.72;;;;;;;;;;6232520;28;20045;-80
2021/08/11 05:12:32;;;;;;;20.63;3.92;;;;;;;;;;6220237;28;20045;-80
2021/08/11 05:15:34;;;;;;;12.80;3.28;;;;;;;;;;6244785;28;20041;-80
2021/08/11 05:18:36;;;;;;;26.33;4.43;;;;;;;;;;6231977;28;20038;-80
2021/08/11 05:21:37;;;;;;;29.20;4.10;;;;;;;;;;6234389;28;20109;-80
2021/08/11 05:24:39;;;;;;;52.00;4.78;;;;;;;;;;6231776;28;20045;-80
2021/08/11 05:27:42;;;;;;;22.55;4.97;;;;;;;;;;6229944;28;20088;-80
2021/08/11 05:30:44;;;;;;;10.35;3.53;;;;;;;;;;6252345;28;20537;-80
2021/08/11 05:33:45;;;;;;;18.60;3.90;;;;;;;;;;6256062;28;20059;-80
2021/08/11 05:36:47;;;;;;;5.70;3.22;;;;;;;;;;6255225;28;20057;-79
2021/08/11 05:39:49;;;;;;;7.40;3.08;;;;;;;;;;6257407;28;20047;-80
2021/08/11 05:42:50;;;;;;;8.20;3.78;;;;;;;;;;6259065;28;20047;-80
2021/08/11 05:45:53;;;;;;;21.73;4.25;;;;;;;;;;6261330;28;20109;-80
2021/08/11 05:48:55;;;;;;;4.43;3.13;;;;;;;;;;6259977;28;20104;-80
2021/08/11 05:51:56;;;;;;;4.70;3.28;;;;;;;;;;6259957;28;20060;-79
2021/08/11 05:54:58;;;;;;;13.15;3.65;;;;;;;;;;6259481;28;20041;-80
2021/08/11 05:57:59;;;;;;;10.00;3.78;;;;;;;;;;6260870;28;20033;-80
2021/08/11 06:01:01;;;;;;;7.35;4.13;;;;;;;;;;6260012;28;20045;-80
2021/08/11 06:04:03;;;;;;;5.22;3.40;;;;;;;;;;6244843;28;20045;-80
2021/08/11 06:07:04;;;;;;;6.18;3.78;;;;;;;;;;6219380;28;20061;-80
2021/08/11 06:10:06;;;;;;;9.95;4.00;;;;;;;;;;6261071;28;20101;-80
2021/08/11 06:13:08;;;;;;;7.57;3.72;;;;;;;;;;6260443;28;20407;-80
2021/08/11 06:16:10;;;;;;;8.32;4.07;;;;;;;;;;6258367;28;20060;-80
2021/08/11 06:19:12;;;;;;;6.35;3.42;;;;;;;;;;6260690;28;20091;-79
2021/08/11 06:22:14;;;;;;;8.75;3.50;;;;;;;;;;6259133;28;20422;-80
2021/08/11 06:25:16;;;;;;;;;;;;;;;;;;6260829;28;20080;-80
2021/08/11 06:28:18;;;;;;;12.75;3.72;;;;;;;;;;6255717;28;19921;-80
2021/08/11 06:31:23;;;;;;;6.50;3.50;;;;;;;;;;6239895;28;20109;-80
2021/08/11 06:34:25;;;;;;;8.23;3.95;;;;;;;;;;6223401;28;20121;-79
2021/08/11 06:37:27;;;;;;;24.15;4.75;;;;;;;;;;6255624;28;20050;-79
2021/08/11 06:40:29;;;;;;;8.38;4.53;;;;;;;;;;6243759;28;20058;-80
2021/08/11 06:43:30;;;;;;;11.80;5.15;;;;;;;;;;6236256;28;20116;-80
2021/08/11 06:46:32;;;;;;;7.20;4.00;;;;;;;;;;6234306;28;20049;-80
2021/08/11 06:49:34;;;;;;;13.70;5.15;;;;;;;;;;6250704;28;20076;-79
2021/08/11 06:52:37;;;;;;;9.40;4.55;;;;;;;;;;6246368;28;20097;-80
2021/08/11 06:55:38;;;;;;;8.50;5.35;;;;;;;;;;6234321;28;20037;-80
2021/08/11 06:58:40;;;;;;;10.27;4.93;;;;;;;;;;6234456;28;20042;-79
2021/08/11 07:01:42;;;;;;;8.38;4.95;;;;;;;;;;6233955;28;20054;-80
2021/08/11 07:04:44;;;;;;;8.82;5.05;;;;;;;;;;6229347;28;20048;-80
2021/08/11 07:07:45;;;;;;;16.20;5.95;;;;;;;;;;6219504;28;20506;-80
2021/08/11 07:10:48;;;;;;;9.60;5.72;;;;;;;;;;6226633;28;20049;-81
2021/08/11 07:13:49;;;;;;;11.43;5.38;;;;;;;;;;6226952;28;20101;-78
2021/08/11 07:16:51;;;;;;;11.10;6.00;;;;;;;;;;6217192;28;20053;-78
2021/08/11 07:19:52;;;;;;;11.18;6.68;;;;;;;;;;6219283;28;20797;-78
2021/08/11 07:22:58;;;;;;;10.07;6.30;;;;;;;;;;6217879;28;20125;-79
2021/08/11 07:26:00;;;;;;;11.50;7.43;;;;;;;;;;6238843;28;20056;-77
2021/08/11 07:29:01;;;;;;;11.90;6.88;;;;;;;;;;6215653;28;20053;-78
2021/08/11 07:32:03;;;;;;;12.50;7.18;;;;;;;;;;6216836;28;20159;-78
2021/08/11 07:35:05;;;;;;;13.85;7.18;;;;;;;;;;6215889;28;20053;-79
2021/08/11 07:38:07;;;;;;;10.97;7.07;;;;;;;;;;6223245;28;20048;-79
2021/08/11 07:41:09;;;;;;;12.95;7.72;;;;;;;;;;6230453;28;20045;-80
2021/08/11 07:44:10;;;;;;;13.75;7.90;;;;;;;;;;6231064;28;20112;-80
2021/08/11 07:47:12;;;;;;;13.30;8.45;;;;;;;;;;6229347;28;20121;-79
2021/08/11 07:50:15;;;;;;;12.40;7.80;;;;;;;;;;6218106;28;20060;-80
2021/08/11 07:53:19;;;;;;;12.40;7.40;;;;;;;;;;6254375;28;20516;-80
2021/08/11 07:56:21;;;;;;;11.57;7.75;;;;;;;;;;6248148;28;20042;-79
2021/08/11 07:59:23;;;;;;;12.60;8.07;;;;;;;;;;6235764;28;20041;-80
2021/08/11 08:02:24;;;;;;;12.05;7.70;;;;;;;;;;6227645;28;20530;-80
2021/08/11 08:05:26;;;;;;;11.75;7.85;;;;;;;;;;6232978;28;20657;-79
2021/08/11 08:08:28;;;;;;;14.45;8.40;;;;;;;;;;6252586;28;20140;-79
2021/08/11 08:11:29;;;;;;;14.63;8.35;;;;;;;;;;6253404;28;20136;-80
2021/08/11 08:14:32;;;;;;;10.18;7.38;;;;;;;;;;6253050;28;20065;-80
2021/08/11 08:17:33;;;;;;;11.63;7.35;;;;;;;;;;6237104;28;20103;-80
2021/08/11 08:20:52;;;;;;;11.00;7.38;;;;;;;;;;6253100;28;20052;-80
2021/08/11 08:23:54;;;;;;;12.70;7.82;;;;;;;;;;6253553;28;20128;-80
2021/08/11 08:26:55;;;;;;;10.35;6.80;;;;;;;;;;6253107;28;20049;-80
2021/08/11 08:29:57;;;;;;;11.93;7.45;;;;;;;;;;6253471;28;20061;-80
2021/08/11 08:32:59;;;;;;;9.95;6.68;;;;;;;;;;6235852;28;20096;-80
2021/08/11 08:36:01;;;;;;;8.90;6.32;;;;;;;;;;6224889;28;20038;-80
2021/08/11 08:39:03;;;;;;;8.85;6.70;;;;;;;;;;6245097;28;20045;-80
2021/08/11 08:42:05;;;;;;;9.55;6.88;;;;;;;;;;6253184;28;20668;-80
2021/08/11 08:45:08;;;;;;;9.23;6.90;;;;;;;;;;6251227;28;20073;-80
2021/08/11 08:48:10;;;;;;;8.93;6.10;;;;;;;;;;6237544;28;20049;-80
2021/08/11 08:51:14;;;;;;;9.43;6.80;;;;;;;;;;6225186;28;20065;-80
2021/08/11 08:54:20;;;;;;;8.68;5.90;;;;;;;;;;6228436;28;20114;-80
2021/08/11 08:57:21;;;;;;;6.70;5.28;;;;;;;;;;6227027;28;20053;-80
2021/08/11 09:00:23;;;;;;;7.32;5.13;;;;;;;;;;6228530;28;20053;-80
2021/08/11 09:03:25;;;;;;;6.57;5.43;;;;;;;;;;6230170;28;20073;-80
2021/08/11 09:06:34;;;;;;;8.32;5.18;;;;;;;;;;6219542;28;20060;-81
2021/08/11 09:09:38;;;;;;;6.68;5.10;;;;;;;;;;6236707;28;20058;-80
2021/08/11 09:12:44;;;;;;;7.05;4.85;;;;;;;;;;6230205;28;20052;-80
2021/08/11 09:15:48;;;;;;;6.80;4.85;;;;;;;;;;6234124;28;20049;-80
2021/08/11 09:18:53;;;;;;;8.63;4.65;;;;;;;;;;6216012;28;20057;-80
2021/08/11 09:22:06;;;;;;;5.45;4.32;;;;;;;;;;6243355;28;20129;-80
2021/08/11 09:25:08;;;;;;;4.70;3.90;;;;;;;;;;6249166;28;20144;-80
2021/08/11 09:28:18;;;;;;;4.75;4.10;;;;;;;;;;6235249;28;20049;-81
2021/08/11 09:31:31;;;;;;;5.07;3.60;;;;;;;;;;6236062;28;20049;-80
2021/08/11 09:34:42;;;;;;;5.72;3.50;;;;;;;;;;6236465;28;20061;-81
2021/08/11 09:37:44;;;;;;;4.38;3.10;;;;;;;;;;6241389;28;20136;-81
2021/08/11 09:40:48;;;;;;;3.88;3.10;;;;;;;;;;6237943;28;20101;-81
2021/08/11 09:44:01;;;;;;;4.60;3.10;;;;;;;;;;6228345;28;20118;-81
2021/08/11 09:47:11;;;;;;;4.13;3.17;;;;;;;;;;6221407;28;20045;-81
2021/08/11 09:50:13;;;;;;;4.90;2.97;;;;;;;;;;6227790;28;20052;-81
2021/08/11 09:53:17;;;;;;;3.25;2.90;;;;;;;;;;6246141;28;20050;-81
2021/08/11 09:56:19;;;;;;;5.43;3.08;;;;;;;;;;6225724;28;20122;-83
2021/08/11 09:59:21;;;;;;;3.78;3.00;;;;;;;;;;6229823;28;20425;-83
2021/08/11 10:02:25;;;;;;;4.47;3.55;;;;;;;;;;6243798;28;20053;-83
2021/08/11 10:05:35;;;;;;;3.53;3.20;;;;;;;;;;6241859;28;20061;-83
2021/08/11 10:08:36;;;;;;;5.63;3.28;;;;;;;;;;6244569;28;20057;-83
2021/08/11 10:11:40;;;;;;;3.85;3.03;;;;;;;;;;6245580;28;20498;-82
2021/08/11 10:14:43;;;;;;;4.00;3.20;;;;;;;;;;6218095;28;20066;-82
2021/08/11 10:17:49;;;;;;;3.78;3.17;;;;;;;;;;6216307;28;20042;-82
2021/08/11 10:20:54;;;;;;;4.13;3.08;;;;;;;;;;6228216;28;20042;-83
2021/08/11 10:23:55;;;;;;;5.40;2.80;;;;;;;;;;6197313;28;20054;-82
2021/08/11 10:26:58;;;;;;;3.30;2.88;;;;;;;;;;6210285;28;20672;-82
2021/08/11 10:30:00;;;;;;;3.40;3.10;;;;;;;;;;6229204;28;20054;-83
2021/08/11 10:33:01;;;;;;;3.23;2.87;;;;;;;;;;6231704;28;20046;-84
2021/08/11 10:36:04;;;;;;;3.05;2.60;;;;;;;;;;6225663;28;20123;-82
2021/08/11 10:39:07;;;;;;;3.63;2.80;;;;;;;;;;6246172;28;20044;-82
2021/08/11 10:42:15;;;;;;;3.63;2.47;;;;;;;;;;6250608;28;20041;-84
2021/08/11 10:45:24;;;;;;;3.10;2.63;;;;;;;;;;6233788;28;20143;-84
2021/08/11 10:48:26;;;;;;;3.58;3.00;;;;;;;;;;6228705;28;20052;-82
2021/08/11 10:51:45;;;;;;;2.80;2.43;;;;;;;;;;6209123;28;20380;-82
2021/08/11 10:54:50;;;;;;;3.00;2.60;;;;;;;;;;6221106;28;20046;-82
2021/08/11 10:57:53;;;;;;;3.42;2.50;;;;;;;;;;6223290;28;20593;-82
2021/08/11 11:00:56;;;;;;;4.50;2.85;;;;;;;;;;6220111;28;20042;-82
2021/08/11 11:04:02;;;;;;;3.17;2.85;;;;;;;;;;6224021;28;20643;-82
2021/08/11 11:07:10;;;;;;;4.22;2.63;;;;;;;;;;6225191;28;20076;-83
2021/08/11 11:10:26;;;;;;;5.07;2.58;;;;;;;;;;6215598;28;20049;-81
2021/08/11 11:13:32;;;;;;;3.85;2.58;;;;;;;;;;6222066;28;20077;-82
2021/08/11 11:17:02;;;;;;;3.03;2.33;;;;;;;;;;6221415;28;20058;-84
2021/08/11 11:20:08;;;;;;;3.75;2.50;;;;;;;;;;6200295;28;20064;-82
2021/08/11 11:23:10;;;;;;;4.03;2.33;;;;;;;;;;6248693;28;20037;-83
2021/08/11 11:26:29;;;;;;;2.83;2.50;;;;;;;;;;6233534;28;20063;-81
2021/08/11 11:29:48;;;;;;;3.65;2.80;;;;;;;;;;6248908;28;20613;-82
2021/08/11 11:32:50;;;;;;;3.22;2.70;;;;;;;;;;6247983;28;20041;-82
2021/08/11 11:36:18;;;;;;;3.95;2.42;;;;;;;;;;6243866;28;20041;-83
2021/08/11 11:39:20;;;;;;;3.45;2.40;;;;;;;;;;6243670;28;20049;-81
2021/08/11 11:42:29;;;;;;;;;;;;;;;;;;6245485;28;20053;-82
2021/08/11 11:45:44;;;;;;;3.17;2.20;;;;;;;;;;6223551;28;19921;-82
2021/08/11 11:49:34;;;;;;;3.28;2.40;;;;;;;;;;6236359;28;20064;-82
2021/08/11 11:52:37;;;;;;;3.03;2.13;;;;;;;;;;6215106;28;20045;-82
2021/08/11 11:55:43;;;;;;;2.88;2.40;;;;;;;;;;6221664;28;20056;-83
2021/08/11 11:58:47;;;;;;;3.10;2.70;;;;;;;;;;6204033;28;20112;-83
2021/08/11 12:01:57;;;;;;;3.28;2.45;;;;;;;;;;6221932;28;20038;-83
2021/08/11 12:05:04;;;;;;;3.75;2.70;;;;;;;;;;6212238;28;20042;-83
2021/08/11 12:08:10;;;;;;;3.58;2.35;;;;;;;;;;6195861;28;20109;-83
2021/08/11 12:11:13;;;;;;;2.83;2.28;;;;;;;;;;6213938;28;20056;-83
2021/08/11 12:14:24;;;;;;;3.42;2.38;;;;;;;;;;6230246;28;20610;-84
2021/08/11 12:17:32;;;;;;;3.40;2.15;;;;;;;;;;6230197;28;20045;-83
2021/08/11 12:20:36;;;;;;;2.80;2.20;;;;;;;;;;6231919;28;20446;-83
2021/08/11 12:23:38;;;;;;;2.40;2.13;;;;;;;;;;6244651;28;20597;-84
2021/08/11 12:26:40;;;;;;;;;;;;;;;;;;6243777;28;20033;-82
2021/08/11 12:29:41;;;;;;;2.72;2.10;;;;;;;;;;6218841;28;19924;-83
2021/08/11 12:32:43;;;;;;;2.97;2.30;;;;;;;;;;6217078;28;20583;-82
2021/08/11 12:35:50;;;;;;;4.78;2.47;;;;;;;;;;6211721;28;20053;-82
2021/08/11 12:39:07;;;;;;;4.75;2.17;;;;;;;;;;6188466;28;20212;-82
2021/08/11 12:42:18;;;;;;;3.40;2.38;;;;;;;;;;6191947;28;20050;-81
2021/08/11 12:45:20;;;;;;;3.13;2.25;;;;;;;;;;6186704;28;20505;-82
2021/08/11 12:48:33;;;;;;;3.17;2.28;;;;;;;;;;6186695;28;20048;-81
2021/08/11 12:51:35;;;;;;;3.42;2.20;;;;;;;;;;6232094;28;20108;-82
2021/08/11 12:55:14;;;;;;;4.10;2.57;;;;;;;;;;6252221;28;20129;-82
2021/08/11 12:58:15;;;;;;;3.03;2.33;;;;;;;;;;6243669;28;20264;-82
2021/08/11 13:01:39;;;;;;;2.70;1.97;;;;;;;;;;6241072;28;20075;-81
2021/08/11 13:04:41;;;;;;;4.50;2.45;;;;;;;;;;6249246;28;20135;-82
2021/08/11 13:07:53;;;;;;;3.80;2.30;;;;;;;;;;6186945;28;20050;-82
2021/08/11 13:10:56;;;;;;;;;;;;;;;;;;6200422;28;20284;-83
2021/08/11 13:13:57;;;;;;;2.95;2.17;;;;;;;;;;6247024;28;19925;-82
2021/08/11 13:17:05;;;;;;;2.27;1.97;;;;;;;;;;6239002;28;20045;-82
2021/08/11 13:20:12;;;;;;;3.15;2.13;;;;;;;;;;6242414;28;20049;-83
2021/08/11 13:23:14;;;;;;;2.40;2.00;;;;;;;;;;6225886;28;20045;-81
2021/08/11 13:26:18;;;;;;;2.80;2.17;;;;;;;;;;6238056;28;20060;-82
2021/08/11 13:29:28;;;;;;;3.88;2.58;;;;;;;;;;6231563;28;20134;-83
2021/08/11 13:32:31;;;;;;;3.05;2.53;;;;;;;;;;6191287;28;20117;-81
2021/08/11 13:35:33;;;;;;;4.43;2.50;;;;;;;;;;6218169;28;20046;-81
2021/08/11 13:38:35;;;;;;;3.83;2.63;;;;;;;;;;6235470;28;20057;-79
2021/08/11 13:41:36;;;;;;;2.85;2.42;;;;;;;;;;6236233;28;20512;-79
2021/08/11 13:44:38;;;;;;;2.95;2.35;;;;;;;;;;6222979;28;20752;-79
2021/08/11 13:47:40;;;;;;;4.20;2.28;;;;;;;;;;6223753;28;20073;-83
2021/08/11 13:50:42;;;;;;;4.30;2.55;;;;;;;;;;6217917;28;20096;-81
2021/08/11 13:53:43;;;;;;;2.88;2.25;;;;;;;;;;6229218;28;20049;-80
2021/08/11 13:56:45;;;;;;;4.13;2.38;;;;;;;;;;6226046;28;20050;-81
2021/08/11 13:59:47;;;;;;;3.03;2.58;;;;;;;;;;6234474;28;20056;-80
2021/08/11 14:02:50;;;;;;;3.13;2.53;;;;;;;;;;6231921;28;20099;-80
2021/08/11 14:05:53;;;;;;;2.88;2.40;;;;;;;;;;6215993;28;20099;-81
2021/08/11 14:08:56;;;;;;;3.75;2.22;;;;;;;;;;6222321;28;20064;-81
2021/08/11 14:12:01;;;;;;;2.85;2.35;;;;;;;;;;6206102;28;20054;-81
2021/08/11 14:15:04;;;;;;;3.17;2.38;;;;;;;;;;6218578;28;20045;-80
2021/08/11 14:18:05;;;;;;;3.25;2.60;;;;;;;;;;6218344;28;20042;-80
2021/08/11 14:21:07;;;;;;;2.60;2.25;;;;;;;;;;6216887;28;20057;-80
2021/08/11 14:24:09;;;;;;;3.38;2.28;;;;;;;;;;6221942;28;20056;-80
2021/08/11 14:27:11;;;;;;;2.88;2.30;;;;;;;;;;6224735;28;20089;-80
2021/08/11 14:30:13;;;;;;;3.00;2.10;;;;;;;;;;6221832;28;20056;-80
2021/08/11 14:33:14;;;;;;;4.68;2.50;;;;;;;;;;6224154;28;20054;-80
2021/08/11 14:36:16;;;;;;;2.30;2.03;;;;;;;;;;6217769;28;20048;-80
2021/08/11 14:39:18;;;;;;;2.38;2.08;;;;;;;;;;6213271;28;20053;-81
2021/08/11 14:42:20;;;;;;;3.33;2.33;;;;;;;;;;6237403;28;20050;-80
2021/08/11 14:45:22;;;;;;;2.55;2.22;;;;;;;;;;6225922;28;20045;-80
2021/08/11 14:48:23;;;;;;;3.22;2.60;;;;;;;;;;6242465;28;20071;-80
2021/08/11 14:51:25;;;;;;;4.75;2.20;;;;;;;;;;6244153;28;20045;-80
2021/08/11 14:54:28;;;;;;;2.45;2.10;;;;;;;;;;6244907;28;20049;-80
2021/08/11 14:57:30;;;;;;;4.18;2.78;;;;;;;;;;6240307;28;20046;-80
2021/08/11 15:00:32;;;;;;;3.47;2.47;;;;;;;;;;6216698;28;20080;-80
2021/08/11 15:03:34;;;;;;;2.97;2.60;;;;;;;;;;6214463;28;20126;-80
2021/08/11 15:06:36;;;;;;;5.47;2.40;;;;;;;;;;6223828;28;20100;-80
2021/08/11 15:09:38;;;;;;;;;;;;;;;;;;6219497;28;20052;-81
2021/08/11 15:12:39;;;;;;;3.22;2.45;;;;;;;;;;6216900;28;19925;-81
2021/08/11 15:15:41;;;;;;;3.22;2.42;;;;;;;;;;6214749;28;20526;-82
2021/08/11 15:18:43;;;;;;;2.97;2.10;;;;;;;;;;6217551;28;20057;-80
2021/08/11 15:21:44;;;;;;;3.30;2.30;;;;;;;;;;6223918;28;20077;-81
2021/08/11 15:24:46;;;;;;;2.40;2.20;;;;;;;;;;6226005;28;20423;-81
2021/08/11 15:27:47;;;;;;;2.85;2.40;;;;;;;;;;6246259;28;20410;-81
2021/08/11 15:30:49;;;;;;;2.50;2.30;;;;;;;;;;6234999;28;20052;-81
2021/08/11 15:33:51;;;;;;;3.47;2.35;;;;;;;;;;6242042;28;20041;-81
2021/08/11 15:36:52;;;;;;;4.22;2.58;;;;;;;;;;6222518;28;20045;-81
2021/08/11 15:39:54;;;;;;;3.38;2.40;;;;;;;;;;6241051;28;20050;-80
2021/08/11 15:42:56;;;;;;;3.20;2.65;;;;;;;;;;6241989;28;20037;-80
2021/08/11 15:45:59;;;;;;;3.22;2.53;;;;;;;;;;6239250;28;20038;-80
2021/08/11 15:49:00;;;;;;;3.28;2.70;;;;;;;;;;6219177;28;20056;-80
2021/08/11 15:52:04;;;;;;;2.65;2.08;;;;;;;;;;6232736;28;20514;-80
2021/08/11 15:55:06;;;;;;;3.25;2.20;;;;;;;;;;6220327;28;20057;-81
2021/08/11 15:58:12;;;;;;;3.03;2.22;;;;;;;;;;6215481;28;20054;-80
2021/08/11 16:01:14;;;;;;;3.33;2.33;;;;;;;;;;6209371;28;20081;-82
2021/08/11 16:04:18;;;;;;;3.15;2.35;;;;;;;;;;6225116;28;20277;-82
2021/08/11 16:07:20;;;;;;;3.10;2.40;;;;;;;;;;6216829;28;20125;-81
2021/08/11 16:10:22;;;;;;;3.60;2.53;;;;;;;;;;6219385;28;20273;-82
2021/08/11 16:13:36;;;;;;;3.10;2.33;;;;;;;;;;6216129;28;20046;-82
2021/08/11 16:16:37;;;;;;;4.38;2.63;;;;;;;;;;6224122;28;20117;-82
2021/08/11 16:19:39;;;;;;;3.58;2.67;;;;;;;;;;6243605;28;20041;-82
2021/08/11 16:22:41;;;;;;;4.40;2.40;;;;;;;;;;6219879;28;20708;-82
2021/08/11 16:25:42;;;;;;;4.95;2.38;;;;;;;;;;6215915;28;20887;-82
2021/08/11 16:28:44;;;;;;;3.97;2.28;;;;;;;;;;6211788;28;20518;-83
2021/08/11 16:31:45;;;;;;;4.13;2.90;;;;;;;;;;6234569;28;20049;-83
2021/08/11 16:34:47;;;;;;;3.20;2.47;;;;;;;;;;6209317;28;20503;-81
2021/08/11 16:37:49;;;;;;;3.20;2.60;;;;;;;;;;6215867;28;20038;-82
2021/08/11 16:40:56;;;;;;;3.78;2.53;;;;;;;;;;6217598;28;20123;-83
2021/08/11 16:43:58;;;;;;;2.97;2.20;;;;;;;;;;6218875;28;20037;-83
2021/08/11 16:46:59;;;;;;;4.25;2.40;;;;;;;;;;6223664;28;20059;-83
2021/08/11 16:50:01;;;;;;;3.33;2.30;;;;;;;;;;6217507;28;20061;-83
2021/08/11 16:53:03;;;;;;;4.37;2.30;;;;;;;;;;6239693;28;20268;-82
2021/08/11 16:56:04;;;;;;;4.05;2.40;;;;;;;;;;6214743;28;20084;-81
2021/08/11 16:59:10;;;;;;;3.80;2.47;;;;;;;;;;6228471;28;20046;-82
2021/08/11 17:02:12;;;;;;;3.17;2.50;;;;;;;;;;6219529;28;20050;-83
2021/08/11 17:05:14;;;;;;;3.95;3.08;;;;;;;;;;6217276;28;20423;-82
2021/08/11 17:08:15;;;;;;;4.37;2.73;;;;;;;;;;6218324;28;20046;-82
2021/08/11 17:11:20;;;;;;;4.43;2.67;;;;;;;;;;6218539;28;20125;-80
2021/08/11 17:14:21;;;;;;;3.60;2.40;;;;;;;;;;6216794;28;20173;-81
2021/08/11 17:17:26;;;;;;;4.07;3.17;;;;;;;;;;6218005;28;20514;-80
2021/08/11 17:20:27;;;;;;;3.28;2.20;;;;;;;;;;6218318;28;20052;-83
2021/08/11 17:23:29;;;;;;;3.47;2.37;;;;;;;;;;6218378;28;20054;-80
2021/08/11 17:26:31;;;;;;;3.42;2.55;;;;;;;;;;6218552;28;20046;-80
2021/08/11 17:29:32;;;;;;;8.88;4.65;;;;;;;;;;6211543;28;20049;-82
2021/08/11 17:32:34;;;;;;;19.40;11.13;;;;;;;;;;6219993;28;20642;-81
2021/08/11 17:35:36;;;;;;;4.67;3.13;;;;;;;;;;6213212;28;20045;-81
2021/08/11 17:38:38;;;;;;;3.97;3.17;;;;;;;;;;6217694;28;20277;-82
2021/08/11 17:41:40;;;;;;;5.20;2.92;;;;;;;;;;6215188;28;20045;-81
2021/08/11 17:44:42;;;;;;;7.13;3.45;;;;;;;;;;6206090;28;20535;-82
2021/08/11 17:47:43;;;;;;;9.32;6.15;;;;;;;;;;6203600;28;20149;-81
2021/08/11 17:50:45;;;;;;;4.20;2.90;;;;;;;;;;6223993;28;20046;-81
2021/08/11 17:53:49;;;;;;;4.80;2.67;;;;;;;;;;6195143;28;20049;-80
2021/08/11 17:56:54;;;;;;;4.10;2.50;;;;;;;;;;6228754;28;20467;-81
2021/08/11 17:59:56;;;;;;;6.43;3.50;;;;;;;;;;6238999;28;20045;-81
2021/08/11 18:02:58;;;;;;;3.75;2.95;;;;;;;;;;6204040;28;20050;-81
2021/08/11 18:06:02;;;;;;;;;;;;;;;;;;6214260;28;20060;-82
2021/08/11 18:09:03;;;;;;;4.35;3.08;;;;;;;;;;6205648;28;20365;-81
2021/08/11 18:12:05;;;;;;;5.22;3.67;;;;;;;;;;6240167;28;20591;-81
2021/08/11 18:15:07;;;;;;;5.03;3.20;;;;;;;;;;6239084;28;20532;-82
2021/08/11 18:18:09;;;;;;;4.15;2.72;;;;;;;;;;6241062;28;20391;-81
2021/08/11 18:21:11;;;;;;;5.00;3.00;;;;;;;;;;6241040;28;20410;-81